Saturday, November 1, 2014, 7:33 AM EDT

KPHF, Williamsburg International Airport

Location: Newport News, VA, United States Lat: 37.133
Local Time: 7:33 AM EDT (11:33 GMT) Lon: -76.5
Time Zone: US/Eastern Elev: 42 ft

Show me the last for .
Show Decoded

2014-11-01 06:54 METAR KPHF 011054Z 35007KT 10SM OVC016 10/07 A2969 RMK AO2 SLP053 T01000067 =
2014-11-01 06:34 METAR KPHF 011034Z 34007KT 10SM BKN018 OVC032 10/06 A2969 RMK AO2 T01000061 =
2014-11-01 06:26 METAR KPHF 011026Z 34006KT 10SM SCT018 BKN032 BKN039 10/06 A2969 RMK AO2
                 T01000061 =
2014-11-01 06:11 METAR KPHF 011011Z 35006KT 10SM SCT020 BKN029 OVC036 10/06 A2969 RMK AO2
                 T01000061 =
2014-11-01 06:01 METAR KPHF 011001Z 36007KT 10SM FEW022 SCT029 OVC036 10/06 A2969 =
2014-11-01 05:54 METAR KPHF 010954Z 35006KT 10SM FEW022 BKN029 OVC035 10/06 A2969 RMK AO2 SLP052
                 T01000061 =
2014-11-01 04:54 METAR KPHF 010854Z 34006KT 10SM OVC036 10/06 A2970 RMK AO2 SLP057 T01000061
                 55011 =
2014-11-01 03:54 METAR KPHF 010754Z 36003KT 10SM CLR 08/05 A2970 RMK AO2 SLP057 T00830050 =
2014-11-01 02:54 METAR KPHF 010654Z 01004KT 10SM CLR 08/04 A2972 RMK AO2 SLP062 T00780044 =
2014-11-01 01:54 METAR KPHF 010554Z 36004KT 10SM CLR 08/04 A2973 RMK AO2 SLP068 T00780044 10094
                 20078 58021 =
2014-11-01 00:54 METAR KPHF 010454Z 35004KT 10SM CLR 08/04 A2976 RMK AO2 SLP076 T00780044
                 401720078 =
2014-10-31 22:54 METAR KPHF 010254Z 36005KT 10SM CLR 08/03 A2980 RMK AO2 SLP089 T00830033 56013 =
2014-10-31 21:54 METAR KPHF 010154Z 02004KT 10SM CLR 09/04 A2981 RMK AO2 SLP094 T00890039 =
2014-10-31 20:54 METAR KPHF 010054Z AUTO 02005KT 10SM CLR 09/04 A2981 RMK AO2 SLP094 T00940044
                 TSNO =
2014-10-31 19:54 METAR KPHF 312354Z AUTO 35003KT 10SM FEW050 09/06 A2984 =
2014-10-31 18:54 METAR KPHF 312254Z AUTO 02003KT 10SM CLR 11/05 A2982 RMK AO2 SLP098 T01060050
                 TSNO =
2014-10-31 17:54 METAR KPHF 312154Z AUTO 03005KT 10SM CLR 13/04 A2983 RMK AO2 SLP099 T01280044
                 TSNO =
2014-10-31 16:54 METAR KPHF 312054Z AUTO 05006KT 10SM CLR 15/04 A2983 RMK AO2 SLP099 T01500044
                 56014 TSNO =
2014-10-31 15:54 METAR KPHF 311954Z AUTO 06009KT 10SM OVC055 15/05 A2984 RMK AO2 SLP103 T01500050
                 TSNO =
2014-10-31 14:54 METAR KPHF 311854Z AUTO 06010KT 10SM BKN050 16/05 A2984 RMK AO2 SLP104 T01610050
                 TSNO =
2014-10-31 13:54 METAR KPHF 311754Z 03009KT 10SM OVC048 16/05 A2987 RMK AO2 SLP113 60000
                 T01610050 10172 20100 58019 =
2014-10-31 12:54 METAR KPHF 311654Z 06010KT 10SM CLR 16/06 A2989 =
2014-10-31 11:54 METAR KPHF 311554Z 02008KT 10SM FEW034 17/07 A2992 RMK AO2 SLP130 T01670072 =
2014-10-31 10:54 METAR KPHF 311454Z 05007KT 10SM CLR 15/06 A2992 RMK AO2 RAB08E19 SLP132 P0000
                 60000 T01500061 58010 =
2014-10-31 09:54 METAR KPHF 311354Z 36004KT 9SM CLR 13/09 A2995 =
2014-10-31 08:54 METAR KPHF 311254Z 36005KT 8SM CLR 12/08 A2995 RMK AO2 SLP142 T01170083 =
2014-10-31 07:54 METAR KPHF 311154Z 01006KT 8SM CLR 10/07 A2995 RMK AO2 SLP142 T01000067 10100
                 20078 58005 =

Support USWX by starting your Amazon purchase here.